createdAt,value
2023-01-10T00:00:09.441Z,3.38
2023-01-10T00:02:36.192Z,3.42
2023-01-10T00:05:06.142Z,4.35
2023-01-10T00:07:32.894Z,4.57
2023-01-10T00:09:59.808Z,3.28
2023-01-10T00:12:45.049Z,4.05
2023-01-10T00:15:19.297Z,3.63
2023-01-10T00:17:48.979Z,3.38
2023-01-10T00:20:17.887Z,6.50
2023-01-10T00:22:45.530Z,4.70
2023-01-10T00:25:12.285Z,6.13
2023-01-10T00:27:42.410Z,3.72
2023-01-10T00:30:14.103Z,3.45
2023-01-10T00:32:44.440Z,2.83
2023-01-10T00:35:12.052Z,2.78
2023-01-10T00:37:39.927Z,3.55
2023-01-10T00:40:10.328Z,3.65
2023-01-10T00:42:56.286Z,2.88
2023-01-10T00:45:24.916Z,4.65
2023-01-10T00:47:52.103Z,4.20
2023-01-10T00:50:19.023Z,3.40
2023-01-10T00:52:45.761Z,5.93
2023-01-10T00:55:12.453Z,4.82
2023-01-10T00:57:39.287Z,4.57
2023-01-10T01:00:09.174Z,4.35
2023-01-10T01:02:36.283Z,3.95
2023-01-10T01:05:03.413Z,2.50
2023-01-10T01:07:30.095Z,3.40
2023-01-10T01:10:15.536Z,2.63
2023-01-10T01:12:42.244Z,3.42
2023-01-10T01:15:09.596Z,3.10
2023-01-10T01:17:36.387Z,3.75
2023-01-10T01:20:03.160Z,2.58
2023-01-10T01:22:29.836Z,3.40
2023-01-10T01:24:56.609Z,3.42
2023-01-10T01:27:23.299Z,4.15
2023-01-10T01:29:50.049Z,2.83
2023-01-10T01:32:16.790Z,3.72
2023-01-10T01:34:43.596Z,3.42
2023-01-10T01:37:10.297Z,4.45
2023-01-10T01:39:37.090Z,4.53
2023-01-10T01:42:05.338Z,2.78
2023-01-10T01:44:33.414Z,3.97
2023-01-10T01:47:27.500Z,3.10
2023-01-10T01:49:54.165Z,4.78
2023-01-10T01:52:25.827Z,2.97
2023-01-10T01:54:53.666Z,3.47
2023-01-10T01:57:20.964Z,3.25
2023-01-10T01:59:48.511Z,3.00
2023-01-10T02:02:23.522Z,3.55
2023-01-10T02:04:53.210Z,3.05
2023-01-10T02:07:20.236Z,3.25
2023-01-10T02:09:54.130Z,3.03
2023-01-10T02:12:20.828Z,3.85
2023-01-10T02:14:48.311Z,5.72
2023-01-10T02:17:15.053Z,3.55
2023-01-10T02:19:56.798Z,3.53
2023-01-10T02:23:01.415Z,3.55
2023-01-10T02:25:34.035Z,3.40
2023-01-10T02:28:28.092Z,2.60
2023-01-10T02:31:09.882Z,7.03
2023-01-10T02:33:45.212Z,3.20
2023-01-10T02:36:26.032Z,4.85
2023-01-10T02:39:05.594Z,2.15
2023-01-10T02:41:46.734Z,3.03
2023-01-10T02:44:23.906Z,4.70
2023-01-10T02:46:50.658Z,4.05
2023-01-10T02:49:17.376Z,3.63
2023-01-10T02:51:44.082Z,4.13
2023-01-10T02:54:18.736Z,3.90
2023-01-10T02:57:05.253Z,4.25
2023-01-10T02:59:56.207Z,3.47
2023-01-10T03:02:27.886Z,4.03
2023-01-10T03:05:29.838Z,3.53
2023-01-10T03:08:03.918Z,4.95
2023-01-10T03:13:41.574Z,2.75
2023-01-10T03:16:10.462Z,3.30
2023-01-10T03:18:42.109Z,2.90
2023-01-10T03:21:08.890Z,3.33
2023-01-10T03:23:35.619Z,3.10
2023-01-10T03:26:02.502Z,3.35
2023-01-10T03:28:52.080Z,3.22
2023-01-10T03:31:28.493Z,3.45
2023-01-10T03:33:55.316Z,3.88
2023-01-10T03:36:35.310Z,3.45
2023-01-10T03:39:11.710Z,2.78
2023-01-10T03:41:38.390Z,5.20
2023-01-10T03:44:44.384Z,3.05
2023-01-10T03:47:14.094Z,3.67
2023-01-10T03:49:41.667Z,3.20
2023-01-10T03:52:09.729Z,2.50
2023-01-10T03:54:36.463Z,4.15
2023-01-10T03:57:03.155Z,3.63
2023-01-10T03:59:30.110Z,2.20
2023-01-10T04:01:56.916Z,3.05
2023-01-10T04:04:23.819Z,3.42
2023-01-10T04:06:50.748Z,3.53
2023-01-10T04:09:17.491Z,5.18
2023-01-10T04:11:44.188Z,3.85
2023-01-10T04:14:10.914Z,3.67
2023-01-10T04:16:37.624Z,2.70
2023-01-10T04:19:04.429Z,3.33
2023-01-10T04:21:31.100Z,3.28
2023-01-10T04:24:00.665Z,3.72
2023-01-10T04:26:27.576Z,4.55
2023-01-10T04:28:54.279Z,2.58
2023-01-10T04:31:22.768Z,5.45
2023-01-10T04:33:49.567Z,3.83
2023-01-10T04:36:16.249Z,6.70
2023-01-10T04:38:42.905Z,3.17
2023-01-10T04:41:09.830Z,3.38
2023-01-10T04:43:36.579Z,3.00
2023-01-10T04:46:04.170Z,4.15
2023-01-10T04:48:30.979Z,2.88
2023-01-10T04:50:57.683Z,2.50
2023-01-10T04:53:24.380Z,2.85
2023-01-10T04:55:51.135Z,3.60
2023-01-10T04:58:17.850Z,2.90
2023-01-10T05:00:44.516Z,6.85
2023-01-10T05:03:11.295Z,2.95
2023-01-10T05:05:38.000Z,3.20
2023-01-10T05:08:04.990Z,4.20
2023-01-10T05:10:31.793Z,5.40
2023-01-10T05:12:58.497Z,4.00
2023-01-10T05:15:25.511Z,3.17
2023-01-10T05:17:58.199Z,3.90
2023-01-10T05:20:24.980Z,3.60
2023-01-10T05:22:51.685Z,4.05
2023-01-10T05:25:18.359Z,7.68
2023-01-10T05:27:45.013Z,4.28
2023-01-10T05:30:12.594Z,3.95
2023-01-10T05:32:39.734Z,3.85
2023-01-10T05:35:06.873Z,2.75
2023-01-10T05:37:33.540Z,4.53
2023-01-10T05:40:00.323Z,4.25
2023-01-10T05:42:26.999Z,3.70
2023-01-10T05:44:53.687Z,3.75
2023-01-10T05:47:20.364Z,3.15
2023-01-10T05:49:47.118Z,3.88
2023-01-10T05:52:14.248Z,3.30
2023-01-10T05:54:41.176Z,3.80
2023-01-10T05:57:07.827Z,2.95
2023-01-10T05:59:34.545Z,2.95
2023-01-10T06:02:01.281Z,3.53
2023-01-10T06:04:27.968Z,4.28
2023-01-10T06:06:54.657Z,3.05
2023-01-10T06:09:21.316Z,4.40
2023-01-10T06:11:48.007Z,3.83
2023-01-10T06:14:19.141Z,4.05
2023-01-10T06:16:46.676Z,4.55
2023-01-10T06:19:13.377Z,5.07
2023-01-10T06:21:40.057Z,4.63
2023-01-10T06:24:07.238Z,4.60
2023-01-10T06:26:33.979Z,7.50
2023-01-10T06:29:00.787Z,3.78
2023-01-10T06:31:27.585Z,4.35
2023-01-10T06:33:54.456Z,3.65
2023-01-10T06:36:21.450Z,4.13
2023-01-10T06:38:48.229Z,3.83
2023-01-10T06:41:14.935Z,3.13
2023-01-10T06:43:45.689Z,3.80
2023-01-10T06:46:17.323Z,4.40
2023-01-10T06:48:45.526Z,4.32
2023-01-10T06:51:13.598Z,3.70
2023-01-10T06:53:40.352Z,3.33
2023-01-10T06:56:08.870Z,3.55
2023-01-10T06:58:38.514Z,3.10
2023-01-10T07:01:13.763Z,4.80
2023-01-10T07:03:40.945Z,3.50
2023-01-10T07:06:10.548Z,5.18
2023-01-10T07:08:41.062Z,3.80
2023-01-10T07:11:08.434Z,3.50
2023-01-10T07:13:35.408Z,3.88
2023-01-10T07:16:06.614Z,3.67
2023-01-10T07:18:34.645Z,3.50
2023-01-10T07:21:01.471Z,5.38
2023-01-10T07:23:31.124Z,4.28
2023-01-10T07:25:59.225Z,3.90
2023-01-10T07:28:26.282Z,3.22
2023-01-10T07:30:53.481Z,4.53
2023-01-10T07:33:20.318Z,3.72
2023-01-10T07:35:47.047Z,3.40
2023-01-10T07:38:13.719Z,3.00
2023-01-10T07:40:40.450Z,3.88
2023-01-10T07:43:07.181Z,3.95
2023-01-10T07:45:34.398Z,2.75
2023-01-10T07:48:02.508Z,7.38
2023-01-10T07:50:30.305Z,3.78
2023-01-10T07:52:57.281Z,4.22
2023-01-10T07:55:23.952Z,3.45
2023-01-10T07:57:51.409Z,4.55
2023-01-10T08:00:19.050Z,3.30
2023-01-10T08:02:51.347Z,3.63
2023-01-10T08:05:18.084Z,2.85
2023-01-10T08:07:44.930Z,3.25
2023-01-10T08:10:11.964Z,3.20
2023-01-10T08:12:38.772Z,3.72
2023-01-10T08:15:06.315Z,5.13
2023-01-10T08:17:34.243Z,3.78
2023-01-10T08:20:01.006Z,3.42
2023-01-10T08:22:27.776Z,3.00
2023-01-10T08:24:54.551Z,2.72
2023-01-10T08:27:21.253Z,3.30
2023-01-10T08:29:47.992Z,3.55
2023-01-10T08:32:14.776Z,2.00
2023-01-10T08:34:41.506Z,3.55
2023-01-10T08:37:10.796Z,2.00
2023-01-10T08:39:39.236Z,4.10
2023-01-10T08:42:05.992Z,2.30
2023-01-10T08:44:32.651Z,2.47
2023-01-10T08:46:59.495Z,2.42
2023-01-10T08:49:26.466Z,2.40
2023-01-10T08:51:53.185Z,2.38
2023-01-10T08:54:20.155Z,2.40
2023-01-10T08:56:46.834Z,2.88
2023-01-10T08:59:13.679Z,3.40
2023-01-10T09:01:40.548Z,1.65
2023-01-10T09:04:07.286Z,2.40
2023-01-10T09:06:34.096Z,1.95
2023-01-10T09:09:00.761Z,2.45
2023-01-10T09:11:27.746Z,2.63
2023-01-10T09:13:54.494Z,1.80
2023-01-10T09:16:21.218Z,1.45
2023-01-10T09:18:47.908Z,1.75
2023-01-10T09:21:14.746Z,1.48
2023-01-10T09:23:43.462Z,1.50
2023-01-10T09:26:10.183Z,4.97
2023-01-10T09:28:36.955Z,1.23
2023-01-10T09:31:04.466Z,1.00
2023-01-10T09:33:45.240Z,1.42
2023-01-10T09:36:13.731Z,0.60
2023-01-10T09:38:40.429Z,0.90
2023-01-10T09:41:28.926Z,0.93
2023-01-10T09:44:03.985Z,0.65
2023-01-10T09:46:39.841Z,0.60
2023-01-10T09:49:18.636Z,0.93
2023-01-10T09:51:47.192Z,0.60
2023-01-10T09:54:34.427Z,0.50
2023-01-10T09:57:01.191Z,0.50
2023-01-10T09:59:38.048Z,0.40
2023-01-10T10:02:14.360Z,0.28
2023-01-10T10:04:41.499Z,0.40
2023-01-10T10:07:14.722Z,0.45
2023-01-10T10:09:41.489Z,1.00
2023-01-10T10:12:49.008Z,0.30
2023-01-10T10:15:42.407Z,0.30
2023-01-10T10:18:23.372Z,0.30
2023-01-10T10:20:58.869Z,0.35
2023-01-10T10:23:56.788Z,0.17
2023-01-10T10:26:29.647Z,0.40
2023-01-10T10:29:53.540Z,0.50
2023-01-10T10:32:36.412Z,0.60
2023-01-10T10:35:13.027Z,0.57
2023-01-10T10:37:47.091Z,0.52
2023-01-10T10:42:43.200Z,0.30
2023-01-10T10:45:18.293Z,0.38
2023-01-10T10:47:50.891Z,0.50
2023-01-10T10:50:36.339Z,0.40
2023-01-10T10:53:04.221Z,0.47
2023-01-10T10:55:35.525Z,0.57
2023-01-10T10:58:05.858Z,0.25
2023-01-10T11:00:32.699Z,0.52
2023-01-10T11:03:05.697Z,0.65
2023-01-10T11:05:37.793Z,0.40
2023-01-10T11:08:15.984Z,0.28
2023-01-10T11:10:56.686Z,0.30
2023-01-10T11:13:23.395Z,0.52
2023-01-10T11:15:50.396Z,0.47
2023-01-10T11:18:21.628Z,0.43
2023-01-10T11:20:58.222Z,0.40
2023-01-10T11:23:26.327Z,0.63
2023-01-10T11:25:53.273Z,0.40
2023-01-10T11:28:21.728Z,0.68
2023-01-10T11:30:48.732Z,0.40
2023-01-10T11:33:21.937Z,0.40
2023-01-10T11:36:03.378Z,0.40
2023-01-10T11:38:30.298Z,0.57
2023-01-10T11:40:58.651Z,0.40
2023-01-10T11:43:28.117Z,0.30
2023-01-10T11:46:05.571Z,0.30
2023-01-10T11:49:08.110Z,0.50
2023-01-10T11:51:37.309Z,0.63
2023-01-10T11:54:11.651Z,0.30
2023-01-10T11:56:40.073Z,0.82
2023-01-10T11:59:14.833Z,0.40
2023-01-10T12:02:00.915Z,0.30
2023-01-10T12:04:29.633Z,0.40
2023-01-10T12:07:00.011Z,0.30
2023-01-10T12:09:36.703Z,0.50
2023-01-10T12:12:05.257Z,0.50
2023-01-10T12:14:31.953Z,0.25
2023-01-10T12:17:00.571Z,0.75
2023-01-10T12:19:27.858Z,0.47
2023-01-10T12:21:54.577Z,0.63
2023-01-10T12:24:35.392Z,0.57
2023-01-10T12:27:03.186Z,0.40
2023-01-10T12:29:35.260Z,0.60
2023-01-10T12:32:02.123Z,1.38
2023-01-10T12:34:47.083Z,0.65
2023-01-10T12:37:34.383Z,0.70
2023-01-10T12:40:04.662Z,1.48
2023-01-10T12:43:08.212Z,0.75
2023-01-10T12:45:54.986Z,1.25
2023-01-10T12:48:30.858Z,0.80
2023-01-10T12:51:04.836Z,1.50
2023-01-10T12:56:00.481Z,0.80
2023-01-10T12:58:47.818Z,1.70
2023-01-10T13:01:19.183Z,2.25
2023-01-10T13:03:46.487Z,1.98
2023-01-10T13:06:21.560Z,1.80
2023-01-10T13:08:48.274Z,3.45
2023-01-10T13:11:15.689Z,3.50
2023-01-10T13:13:52.246Z,3.42
2023-01-10T13:16:30.965Z,3.72
2023-01-10T13:19:10.662Z,3.58
2023-01-10T13:21:41.362Z,3.65
2023-01-10T13:24:22.479Z,4.78
2023-01-10T13:26:53.376Z,6.72
2023-01-10T13:29:22.304Z,4.68
2023-01-10T13:31:50.396Z,4.63
2023-01-10T13:34:17.079Z,4.38
2023-01-10T13:37:13.467Z,4.28
2023-01-10T13:39:41.323Z,5.53
2023-01-10T13:42:26.554Z,5.05
2023-01-10T13:45:02.400Z,6.15
2023-01-10T13:47:54.618Z,5.75
2023-01-10T13:50:24.491Z,7.93
2023-01-10T13:52:51.139Z,7.72
2023-01-10T13:55:33.972Z,6.80
2023-01-10T13:58:02.452Z,6.60
2023-01-10T14:00:53.668Z,7.85
2023-01-10T14:03:51.478Z,6.93
2023-01-10T14:06:31.537Z,8.80
2023-01-10T14:08:59.291Z,13.98
2023-01-10T14:11:36.079Z,7.20
2023-01-10T14:14:02.745Z,6.85
2023-01-10T14:16:37.476Z,6.75
2023-01-10T14:19:06.488Z,6.63
2023-01-10T14:21:39.718Z,8.65
2023-01-10T14:24:06.585Z,9.30
2023-01-10T14:26:37.959Z,7.53
2023-01-10T14:29:12.643Z,7.68
2023-01-10T14:31:42.947Z,10.40
2023-01-10T14:34:10.996Z,10.27
2023-01-10T14:36:49.582Z,8.18
2023-01-10T14:39:16.481Z,7.80
2023-01-10T14:41:47.735Z,7.88
2023-01-10T14:44:19.425Z,5.95
2023-01-10T14:46:50.148Z,12.57
2023-01-10T14:49:27.914Z,8.95
2023-01-10T14:52:00.976Z,6.00
2023-01-10T14:54:29.532Z,6.87
2023-01-10T14:56:57.591Z,6.70
2023-01-10T14:59:27.882Z,5.63
2023-01-10T15:02:03.608Z,6.68
2023-01-10T15:04:33.003Z,6.57
2023-01-10T15:07:02.945Z,6.88
2023-01-10T15:09:30.983Z,6.70
2023-01-10T15:12:02.290Z,5.53
2023-01-10T15:14:29.125Z,5.07
2023-01-10T15:17:00.760Z,6.45
2023-01-10T15:19:29.524Z,5.32
2023-01-10T15:21:56.237Z,6.57
2023-01-10T15:24:24.498Z,6.57
2023-01-10T15:26:52.196Z,5.35
2023-01-10T15:29:22.239Z,4.88
2023-01-10T15:31:49.057Z,5.05
2023-01-10T15:34:17.895Z,6.20
2023-01-10T15:36:54.842Z,6.40
2023-01-10T15:39:29.000Z,7.22
2023-01-10T15:41:57.924Z,3.97
2023-01-10T15:44:52.443Z,5.95
2023-01-10T15:47:35.973Z,5.68
2023-01-10T15:50:17.193Z,4.70
2023-01-10T15:52:55.097Z,5.45
2023-01-10T15:55:46.284Z,4.60
2023-01-10T15:58:35.075Z,5.55
2023-01-10T16:01:02.023Z,5.05
2023-01-10T16:03:35.176Z,5.60
2023-01-10T16:06:02.214Z,8.17
2023-01-10T16:08:32.573Z,5.50
2023-01-10T16:11:00.333Z,5.95
2023-01-10T16:13:27.642Z,5.55
2023-01-10T16:15:58.671Z,7.07
2023-01-10T16:18:25.769Z,6.05
2023-01-10T16:20:54.506Z,5.20
2023-01-10T16:23:26.297Z,7.35
2023-01-10T16:25:55.238Z,6.32
2023-01-10T16:28:22.201Z,9.60
2023-01-10T16:30:49.107Z,7.15
2023-01-10T16:33:17.709Z,7.00
2023-01-10T16:35:47.861Z,7.03
2023-01-10T16:38:15.743Z,6.55
2023-01-10T16:40:59.506Z,6.28
2023-01-10T16:43:27.029Z,8.43
2023-01-10T16:45:59.969Z,7.22
2023-01-10T16:48:31.022Z,8.98
2023-01-10T16:51:18.341Z,5.82
2023-01-10T16:53:45.652Z,6.35
2023-01-10T16:56:20.552Z,4.85
2023-01-10T16:58:48.312Z,4.90
2023-01-10T17:01:20.209Z,4.60
2023-01-10T17:03:47.284Z,5.63
2023-01-10T17:06:15.219Z,4.80
2023-01-10T17:08:42.111Z,6.22
2023-01-10T17:11:18.309Z,7.05
2023-01-10T17:13:45.605Z,4.85
2023-01-10T17:16:12.352Z,6.03
2023-01-10T17:18:39.598Z,4.60
2023-01-10T17:21:06.571Z,5.80
2023-01-10T17:23:33.363Z,6.55
2023-01-10T17:26:01.177Z,5.28
2023-01-10T17:28:28.957Z,5.60
2023-01-10T17:30:59.449Z,3.28
2023-01-10T17:33:27.512Z,4.57
2023-01-10T17:35:55.480Z,3.53
2023-01-10T17:38:25.435Z,3.30
2023-01-10T17:40:52.387Z,3.00
2023-01-10T17:43:19.831Z,2.90
2023-01-10T17:45:48.361Z,2.88
2023-01-10T17:48:16.491Z,2.30
2023-01-10T17:50:44.314Z,2.95
2023-01-10T17:53:11.575Z,3.78
2023-01-10T17:55:47.489Z,3.00
2023-01-10T17:58:14.903Z,2.28
2023-01-10T18:00:41.747Z,2.70
2023-01-10T18:03:08.708Z,3.00
2023-01-10T18:05:39.875Z,2.83
2023-01-10T18:08:07.958Z,2.63
2023-01-10T18:10:34.770Z,2.63
2023-01-10T18:13:03.656Z,2.40
2023-01-10T18:15:30.446Z,2.67
2023-01-10T18:17:57.910Z,1.48
2023-01-10T18:20:24.659Z,1.55
2023-01-10T18:23:10.214Z,1.83
2023-01-10T18:25:37.024Z,1.35
2023-01-10T18:28:03.787Z,1.73
2023-01-10T18:30:30.807Z,1.00
2023-01-10T18:32:57.743Z,1.25
2023-01-10T18:35:25.845Z,0.88
2023-01-10T18:37:52.650Z,1.13
2023-01-10T18:40:19.846Z,1.00
2023-01-10T18:42:51.300Z,0.90
2023-01-10T18:45:18.040Z,1.52
2023-01-10T18:47:44.724Z,1.80
2023-01-10T18:50:11.581Z,1.45
2023-01-10T18:52:38.248Z,1.45
2023-01-10T18:55:05.445Z,1.23
2023-01-10T18:57:32.512Z,0.77
2023-01-10T18:59:59.352Z,1.20
2023-01-10T19:02:26.098Z,2.33
2023-01-10T19:04:52.833Z,1.63
2023-01-10T19:07:19.601Z,1.23
2023-01-10T19:09:46.447Z,1.30
2023-01-10T19:12:13.166Z,1.48
2023-01-10T19:14:39.921Z,2.03
2023-01-10T19:17:06.729Z,1.85
2023-01-10T19:19:33.573Z,1.40
2023-01-10T19:22:00.253Z,2.40
2023-01-10T19:24:28.878Z,2.33
2023-01-10T19:26:55.956Z,2.10
2023-01-10T19:29:23.089Z,2.20
2023-01-10T19:31:50.165Z,1.40
2023-01-10T19:34:17.498Z,1.38
2023-01-10T19:36:45.468Z,1.90
2023-01-10T19:39:12.356Z,2.95
2023-01-10T19:41:39.251Z,1.77
2023-01-10T19:44:16.259Z,1.55
2023-01-10T19:46:45.335Z,1.50
2023-01-10T19:49:19.402Z,1.38
2023-01-10T19:51:47.822Z,1.77
2023-01-10T19:54:14.623Z,1.83
2023-01-10T19:56:41.458Z,2.15
2023-01-10T19:59:08.144Z,1.33
2023-01-10T20:01:35.006Z,2.25
2023-01-10T20:04:02.633Z,1.55
2023-01-10T20:06:31.075Z,1.85
2023-01-10T20:08:57.876Z,2.28
2023-01-10T20:11:25.614Z,1.60
2023-01-10T20:13:52.583Z,1.55
2023-01-10T20:16:21.303Z,1.00
2023-01-10T20:18:48.433Z,0.98
2023-01-10T20:21:16.041Z,1.42
2023-01-10T20:23:42.851Z,1.27
2023-01-10T20:26:23.683Z,1.17
2023-01-10T20:28:50.744Z,1.50
2023-01-10T20:31:22.740Z,1.63
2023-01-10T20:33:49.617Z,1.20
2023-01-10T20:36:18.183Z,1.60
2023-01-10T20:38:45.017Z,1.65
2023-01-10T20:41:13.302Z,1.30
2023-01-10T20:43:40.263Z,1.00
2023-01-10T20:46:11.405Z,2.47
2023-01-10T20:48:39.069Z,0.93
2023-01-10T20:51:06.291Z,1.10
2023-01-10T20:53:33.230Z,1.50
2023-01-10T20:56:06.946Z,0.88
2023-01-10T20:58:36.945Z,1.02
2023-01-10T21:01:03.681Z,1.55
2023-01-10T21:03:30.519Z,1.23
2023-01-10T21:05:58.531Z,1.17
2023-01-10T21:08:25.595Z,1.00
2023-01-10T21:10:55.329Z,0.80
2023-01-10T21:13:26.692Z,0.80
2023-01-10T21:15:55.223Z,1.13
2023-01-10T21:18:25.174Z,0.70
2023-01-10T21:20:55.996Z,1.30
2023-01-10T21:23:24.249Z,0.90
2023-01-10T21:25:52.403Z,0.85
2023-01-10T21:28:19.180Z,0.80
2023-01-10T21:30:46.178Z,1.00
2023-01-10T21:33:13.357Z,1.17
2023-01-10T21:35:40.078Z,1.00
2023-01-10T21:38:06.879Z,0.85
2023-01-10T21:40:36.356Z,1.45
2023-01-10T21:43:03.156Z,1.60
2023-01-10T21:45:30.447Z,1.38
2023-01-10T21:47:57.306Z,2.22
2023-01-10T21:50:24.478Z,1.13
2023-01-10T21:52:51.403Z,1.20
2023-01-10T21:55:21.581Z,0.93
2023-01-10T21:57:48.250Z,1.17
2023-01-10T22:00:15.274Z,1.10
2023-01-10T22:02:42.337Z,1.42
2023-01-10T22:05:10.241Z,1.10
2023-01-10T22:07:37.371Z,1.52
2023-01-10T22:10:05.183Z,1.20
2023-01-10T22:12:32.182Z,1.13
2023-01-10T22:14:58.922Z,1.27
2023-01-10T22:17:25.744Z,2.63
2023-01-10T22:19:52.508Z,1.42
2023-01-10T22:22:19.324Z,1.42
2023-01-10T22:24:47.909Z,1.30
2023-01-10T22:27:15.484Z,1.48
2023-01-10T22:29:42.391Z,1.27
2023-01-10T22:32:12.427Z,1.70
2023-01-10T22:34:39.190Z,1.20
2023-01-10T22:37:05.925Z,1.30
2023-01-10T22:39:32.655Z,1.75
2023-01-10T22:41:59.537Z,1.63
2023-01-10T22:44:26.891Z,1.58
2023-01-10T22:46:54.664Z,1.52
2023-01-10T22:49:21.784Z,1.95
2023-01-10T22:51:48.463Z,2.17
2023-01-10T22:54:18.152Z,1.95
2023-01-10T22:56:46.072Z,1.08
2023-01-10T22:59:12.893Z,1.30
2023-01-10T23:01:39.885Z,2.08
2023-01-10T23:04:08.865Z,1.55
2023-01-10T23:06:35.626Z,1.02
2023-01-10T23:09:02.361Z,1.27
2023-01-10T23:11:29.270Z,1.17
2023-01-10T23:13:56.295Z,0.90
2023-01-10T23:16:28.518Z,1.40
2023-01-10T23:18:56.849Z,1.42
2023-01-10T23:21:23.775Z,0.77
2023-01-10T23:23:50.541Z,1.55
2023-01-10T23:26:17.583Z,0.93
2023-01-10T23:28:48.824Z,1.40
2023-01-10T23:31:17.702Z,1.83
2023-01-10T23:33:44.511Z,1.30
2023-01-10T23:36:11.247Z,1.40
2023-01-10T23:38:38.301Z,1.80
2023-01-10T23:41:05.408Z,1.75
2023-01-10T23:43:32.095Z,2.25
2023-01-10T23:45:59.297Z,1.52
2023-01-10T23:48:26.258Z,1.38
2023-01-10T23:50:52.959Z,2.13
2023-01-10T23:53:21.549Z,1.52
2023-01-10T23:55:48.271Z,1.25
2023-01-10T23:58:17.067Z,1.42
